createdAt,value
2019-05-17T00:02:30.940Z,96896.41
2019-05-17T00:05:02.298Z,96894.27
2019-05-17T00:07:36.869Z,96889.28
2019-05-17T00:10:17.289Z,96897.20
2019-05-17T00:12:51.685Z,96898.51
2019-05-17T00:15:27.444Z,96891.67
2019-05-17T00:18:02.195Z,96887.98
2019-05-17T00:20:37.633Z,96889.58
2019-05-17T00:23:14.684Z,96881.66
2019-05-17T00:25:47.174Z,96879.58
2019-05-17T00:28:20.309Z,96882.72
2019-05-17T00:30:56.982Z,96876.96
2019-05-17T00:33:29.732Z,96875.12
2019-05-17T00:36:04.068Z,96870.91
2019-05-17T00:38:47.910Z,96863.54
2019-05-17T00:41:12.607Z,96860.91
2019-05-17T00:43:46.711Z,96861.70
2019-05-17T00:46:21.650Z,96853.81
2019-05-17T00:48:57.158Z,96850.92
2019-05-17T00:51:28.533Z,96848.03
2019-05-17T00:56:59.501Z,96840.88
2019-05-17T00:59:33.515Z,96840.39
2019-05-17T01:02:07.030Z,96834.35
2019-05-17T01:04:38.906Z,96825.36
2019-05-17T01:07:12.555Z,96818.45
2019-05-17T01:09:47.213Z,96816.84
2019-05-17T01:12:19.960Z,96821.44
2019-05-17T01:14:54.332Z,96820.83
2019-05-17T01:17:27.124Z,96820.34
2019-05-17T01:19:58.519Z,96813.09
2019-05-17T01:22:31.326Z,96821.65
2019-05-17T01:25:03.204Z,96824.59
2019-05-17T01:27:35.024Z,96824.12
2019-05-17T01:30:12.128Z,96825.44
2019-05-17T01:32:46.421Z,96815.67
2019-05-17T01:35:19.725Z,96816.98
2019-05-17T01:37:51.341Z,96814.06
2019-05-17T01:40:23.701Z,96816.45
2019-05-17T01:42:58.147Z,96819.11
2019-05-17T01:45:32.593Z,96821.73
2019-05-17T01:48:10.450Z,96820.17
2019-05-17T01:50:42.979Z,96819.86
2019-05-17T01:53:16.591Z,96814.84
2019-05-17T01:55:48.922Z,96822.22
2019-05-17T01:58:22.241Z,96815.91
2019-05-17T02:00:57.410Z,96811.69
2019-05-17T02:03:28.942Z,96810.40
2019-05-17T02:06:02.800Z,96808.05
2019-05-17T02:08:37.220Z,96818.07
2019-05-17T02:14:07.101Z,96809.88
2019-05-17T02:16:39.036Z,96799.69
2019-05-17T02:19:10.550Z,96796.73
2019-05-17T02:21:42.704Z,96798.05
2019-05-17T02:24:16.777Z,96789.12
2019-05-17T02:26:47.396Z,96791.44
2019-05-17T02:29:18.982Z,96791.72
2019-05-17T02:31:52.779Z,96786.72
2019-05-17T02:34:26.263Z,96786.45
2019-05-17T02:36:59.077Z,96793.52
2019-05-17T02:39:32.917Z,96795.67
2019-05-17T02:42:06.553Z,96798.82
2019-05-17T02:44:43.720Z,96798.89
2019-05-17T02:47:15.881Z,96793.08
2019-05-17T02:49:49.291Z,96788.56
2019-05-17T02:52:23.180Z,96782.49
2019-05-17T02:54:55.012Z,96795.70
2019-05-17T02:57:26.404Z,96798.88
2019-05-17T02:59:58.893Z,96799.41
2019-05-17T03:02:33.837Z,96790.21
2019-05-17T03:05:07.075Z,96795.19
2019-05-17T03:07:43.844Z,96799.91
2019-05-17T03:10:24.179Z,96802.00
2019-05-17T03:12:48.294Z,96792.27
2019-05-17T03:15:23.437Z,96803.28
2019-05-17T03:17:55.503Z,96799.06
2019-05-17T03:20:26.949Z,96798.53
2019-05-17T03:22:59.181Z,96789.86
2019-05-17T03:25:33.517Z,96791.13
2019-05-17T03:28:06.528Z,96787.16
2019-05-17T03:30:46.040Z,96788.20
2019-05-17T03:33:16.701Z,96784.53
2019-05-17T03:35:49.132Z,96785.54
2019-05-17T03:38:22.832Z,96794.70
2019-05-17T03:41:09.390Z,96792.11
2019-05-17T03:43:28.640Z,96789.70
2019-05-17T03:46:02.836Z,96785.69
2019-05-17T03:48:34.226Z,96785.17
2019-05-17T03:51:06.918Z,96787.78
2019-05-17T03:53:38.359Z,96781.78
2019-05-17T03:56:13.166Z,96784.17
2019-05-17T03:58:43.678Z,96786.33
2019-05-17T04:01:16.543Z,96788.99
2019-05-17T04:03:52.725Z,96785.37
2019-05-17T04:06:23.808Z,96783.34
2019-05-17T04:08:55.677Z,96782.84
2019-05-17T04:11:31.808Z,96780.73
2019-05-17T04:14:02.956Z,96773.61
2019-05-17T04:16:35.379Z,96779.43
2019-05-17T04:19:07.639Z,96784.92
2019-05-17T04:21:42.715Z,96782.53
2019-05-17T04:24:14.192Z,96778.33
2019-05-17T04:26:47.994Z,96785.64
2019-05-17T04:29:22.907Z,96776.75
2019-05-17T04:31:55.614Z,96771.56
2019-05-17T04:34:27.368Z,96780.47
2019-05-17T04:36:59.664Z,96776.55
2019-05-17T04:39:33.350Z,96779.88
2019-05-17T04:42:05.106Z,96783.06
2019-05-17T04:44:36.482Z,96787.80
2019-05-17T04:47:08.584Z,96783.34
2019-05-17T04:49:44.022Z,96790.69
2019-05-17T04:52:14.590Z,96789.86
2019-05-17T04:54:45.875Z,96786.59
2019-05-17T04:57:17.573Z,96779.91
2019-05-17T04:59:52.169Z,96786.02
2019-05-17T05:02:23.742Z,96771.95
2019-05-17T05:04:55.275Z,96779.27
2019-05-17T05:07:29.584Z,96765.88
2019-05-17T05:10:02.991Z,96771.28
2019-05-17T05:12:35.693Z,96762.11
2019-05-17T05:15:13.076Z,96755.30
2019-05-17T05:17:46.117Z,96757.43
2019-05-17T05:20:21.979Z,96772.00
2019-05-17T05:22:52.688Z,96772.41
2019-05-17T05:25:24.153Z,96775.72
2019-05-17T05:27:56.912Z,96779.84
2019-05-17T05:30:28.356Z,96767.64
2019-05-17T05:33:01.894Z,96774.34
2019-05-17T05:35:32.906Z,96767.13
2019-05-17T05:38:04.718Z,96773.59
2019-05-17T05:40:37.559Z,96778.03
2019-05-17T05:43:12.081Z,96787.41
2019-05-17T05:45:43.766Z,96788.20
2019-05-17T05:48:15.159Z,96793.45
2019-05-17T05:50:46.399Z,96790.83
2019-05-17T05:53:17.807Z,96792.36
2019-05-17T05:55:51.787Z,96794.53
2019-05-17T05:58:24.252Z,96791.06
2019-05-17T06:00:57.569Z,96782.76
2019-05-17T06:03:32.049Z,96787.49
2019-05-17T06:06:04.723Z,96791.41
2019-05-17T06:08:36.576Z,96800.40
2019-05-17T06:11:09.060Z,96797.38
2019-05-17T06:13:42.044Z,96789.90
2019-05-17T06:16:13.435Z,96804.17
2019-05-17T06:18:44.614Z,96800.84
2019-05-17T06:21:15.981Z,96793.39
2019-05-17T06:23:48.756Z,96801.77
2019-05-17T06:26:23.470Z,96800.89
2019-05-17T06:28:53.106Z,96807.59
2019-05-17T06:31:24.471Z,96811.63
2019-05-17T06:33:56.415Z,96810.80
2019-05-17T06:36:29.045Z,96814.59
2019-05-17T06:39:02.261Z,96816.70
2019-05-17T06:41:33.604Z,96814.20
2019-05-17T06:44:05.287Z,96821.56
2019-05-17T06:46:41.620Z,96809.95
2019-05-17T06:49:11.896Z,96812.45
2019-05-17T06:51:43.651Z,96814.42
2019-05-17T06:54:17.335Z,96819.30
2019-05-17T06:56:48.883Z,96821.56
2019-05-17T06:59:21.667Z,96820.69
2019-05-17T07:01:53.251Z,96825.54
2019-05-17T07:04:24.435Z,96826.06
2019-05-17T07:07:20.831Z,96833.77
2019-05-17T07:10:00.760Z,96835.33
2019-05-17T07:12:33.063Z,96826.66
2019-05-17T07:15:16.766Z,96821.93
2019-05-17T07:17:50.366Z,96814.16
2019-05-17T07:20:21.525Z,96819.38
2019-05-17T07:22:52.927Z,96807.87
2019-05-17T07:25:24.323Z,96808.03
2019-05-17T07:27:55.582Z,96813.83
2019-05-17T07:30:27.114Z,96800.93
2019-05-17T07:33:00.447Z,96802.63
2019-05-17T07:35:31.356Z,96802.48
2019-05-17T07:38:10.774Z,96792.37
2019-05-17T07:40:42.428Z,96792.43
2019-05-17T07:43:14.982Z,96783.50
2019-05-17T07:45:46.568Z,96784.80
2019-05-17T07:48:20.047Z,96785.14
2019-05-17T07:50:52.890Z,96783.06
2019-05-17T07:53:24.116Z,96773.66
2019-05-17T07:55:55.665Z,96776.75
2019-05-17T07:58:29.704Z,96770.46
2019-05-17T08:01:02.155Z,96782.66
2019-05-17T08:03:34.734Z,96771.53
2019-05-17T08:06:10.337Z,96764.91
2019-05-17T08:08:41.846Z,96772.41
2019-05-17T08:11:14.576Z,96772.53
2019-05-17T08:13:46.710Z,96772.62
2019-05-17T08:16:19.698Z,96775.78
2019-05-17T08:18:53.191Z,96773.23
2019-05-17T08:21:25.433Z,96766.72
2019-05-17T08:24:03.363Z,96774.09
2019-05-17T08:26:35.213Z,96778.64
2019-05-17T08:29:06.663Z,96783.14
2019-05-17T08:31:40.477Z,96781.52
2019-05-17T08:34:13.175Z,96790.05
2019-05-17T08:36:45.010Z,96786.44
2019-05-17T08:39:16.610Z,96775.31
2019-05-17T08:41:49.728Z,96774.16
2019-05-17T08:44:22.532Z,96779.50
2019-05-17T08:46:54.096Z,96765.07
2019-05-17T08:49:29.562Z,96773.73
2019-05-17T08:52:04.430Z,96767.39
2019-05-17T08:54:36.472Z,96778.26
2019-05-17T08:57:09.574Z,96765.41
2019-05-17T08:59:41.530Z,96758.57
2019-05-17T09:02:13.480Z,96768.87
2019-05-17T09:04:45.296Z,96770.76
2019-05-17T09:07:20.430Z,96764.41
2019-05-17T09:09:53.659Z,96756.41
2019-05-17T09:12:25.525Z,96763.86
2019-05-17T09:15:00.251Z,96771.92
2019-05-17T09:17:31.474Z,96766.85
2019-05-17T09:20:05.340Z,96765.72
2019-05-17T09:22:36.654Z,96756.80
2019-05-17T09:25:13.537Z,96758.27
2019-05-17T09:27:43.656Z,96761.20
2019-05-17T09:30:20.343Z,96752.31
2019-05-17T09:32:55.881Z,96757.55
2019-05-17T09:35:29.885Z,96760.09
2019-05-17T09:38:02.192Z,96761.31
2019-05-17T09:40:35.242Z,96758.51
2019-05-17T09:43:10.320Z,96763.95
2019-05-17T09:45:42.338Z,96767.23
2019-05-17T09:48:19.467Z,96761.08
2019-05-17T09:50:54.295Z,96759.97
2019-05-17T09:53:26.646Z,96759.41
2019-05-17T09:56:00.574Z,96755.03
2019-05-17T09:58:33.940Z,96762.04
2019-05-17T10:01:09.317Z,96758.82
2019-05-17T10:03:42.066Z,96750.14
2019-05-17T10:06:19.924Z,96748.17
2019-05-17T10:08:51.815Z,96744.48
2019-05-17T10:11:23.931Z,96757.36
2019-05-17T10:13:58.352Z,96747.05
2019-05-17T10:16:30.811Z,96749.19
2019-05-17T10:19:03.502Z,96753.50
2019-05-17T10:21:35.146Z,96741.32
2019-05-17T10:24:09.582Z,96749.98
2019-05-17T10:26:41.503Z,96743.83
2019-05-17T10:29:13.092Z,96748.88
2019-05-17T10:31:46.301Z,96744.15
2019-05-17T10:34:20.216Z,96744.45
2019-05-17T10:36:52.891Z,96750.48
2019-05-17T10:39:25.648Z,96743.08
2019-05-17T10:41:57.768Z,96747.78
2019-05-17T10:44:43.585Z,96742.18
2019-05-17T10:47:24.053Z,96736.75
2019-05-17T10:49:55.993Z,96755.26
2019-05-17T10:52:29.906Z,96736.83
2019-05-17T10:55:02.209Z,96728.39
2019-05-17T10:57:35.967Z,96721.72
2019-05-17T11:00:16.366Z,96722.22
2019-05-17T11:02:50.350Z,96729.80
2019-05-17T11:05:21.978Z,96724.84
2019-05-17T11:07:54.493Z,96716.19
2019-05-17T11:10:27.737Z,96727.19
2019-05-17T11:13:10.667Z,96723.02
2019-05-17T11:15:45.518Z,96723.83
2019-05-17T11:18:19.929Z,96719.52
2019-05-17T11:20:52.808Z,96726.84
2019-05-17T11:23:24.440Z,96716.03
2019-05-17T11:25:57.381Z,96701.77
2019-05-17T11:28:29.021Z,96708.48
2019-05-17T11:31:02.036Z,96716.89
2019-05-17T11:33:34.225Z,96720.91
2019-05-17T11:36:07.647Z,96727.21
2019-05-17T11:38:41.052Z,96727.41
2019-05-17T11:41:21.030Z,96717.84
2019-05-17T11:43:48.217Z,96712.67
2019-05-17T11:46:35.326Z,96713.30
2019-05-17T11:48:57.395Z,96719.63
2019-05-17T11:51:29.559Z,96719.56
2019-05-17T11:54:02.636Z,96715.30
2019-05-17T11:56:35.486Z,96710.15
2019-05-17T11:59:08.879Z,96717.81
2019-05-17T12:01:41.872Z,96717.41
2019-05-17T12:04:13.563Z,96712.23
2019-05-17T12:06:46.022Z,96708.47
2019-05-17T12:09:36.422Z,96707.39
2019-05-17T12:11:57.010Z,96706.09
2019-05-17T12:14:29.063Z,96704.97
2019-05-17T12:17:01.231Z,96696.94
2019-05-17T12:19:37.037Z,96698.47
2019-05-17T12:22:07.513Z,96699.69
2019-05-17T12:24:53.010Z,96700.31
2019-05-17T12:27:26.202Z,96700.35
2019-05-17T12:35:45.122Z,96696.30
2019-05-17T12:44:06.397Z,96700.74
2019-05-17T12:46:38.375Z,96689.62
2019-05-17T12:49:11.025Z,96687.30
2019-05-17T12:51:42.917Z,96685.23
2019-05-17T12:54:17.367Z,96688.70
2019-05-17T12:56:48.948Z,96692.86
2019-05-17T12:59:21.484Z,96682.52
2019-05-17T13:01:54.816Z,96673.03
2019-05-17T13:04:28.100Z,96682.47
2019-05-17T13:07:20.528Z,96672.45
2019-05-17T13:09:55.148Z,96667.56
2019-05-17T13:12:27.383Z,96664.20
2019-05-17T13:15:00.787Z,96671.14
2019-05-17T13:17:36.851Z,96670.52
2019-05-17T13:20:13.758Z,96665.92
2019-05-17T13:22:46.502Z,96662.87
2019-05-17T13:25:19.436Z,96653.94
2019-05-17T13:27:52.322Z,96658.86
2019-05-17T13:30:33.223Z,96658.11
2019-05-17T13:33:29.167Z,96657.73
2019-05-17T13:36:00.845Z,96650.49
2019-05-17T13:39:08.077Z,96640.99
2019-05-17T13:45:03.315Z,96615.63
2019-05-17T13:47:37.214Z,96621.72
2019-05-17T13:50:10.734Z,96613.78
2019-05-17T13:52:44.061Z,96632.43
2019-05-17T13:55:17.247Z,96627.37
2019-05-17T13:57:52.218Z,96619.81
2019-05-17T14:03:22.315Z,96613.44
2019-05-17T14:05:57.190Z,96616.78
2019-05-17T14:08:32.542Z,96614.34
2019-05-17T14:11:10.288Z,96608.24
2019-05-17T14:13:47.265Z,96610.53
2019-05-17T14:19:10.019Z,96596.19
2019-05-17T14:21:43.527Z,96589.95
2019-05-17T14:24:17.348Z,96584.96
2019-05-17T14:26:56.448Z,96584.96
2019-05-17T14:29:37.254Z,96599.63
2019-05-17T14:32:22.968Z,96598.77
2019-05-17T14:35:03.725Z,96590.12
2019-05-17T14:37:39.412Z,96589.72
2019-05-17T14:40:12.214Z,96591.05
2019-05-17T14:42:47.545Z,96595.81
2019-05-17T14:50:57.804Z,96588.57
2019-05-17T14:53:32.065Z,96584.84
2019-05-17T14:56:04.148Z,96586.37
2019-05-17T14:58:36.719Z,96584.40
2019-05-17T15:03:57.163Z,96582.72
2019-05-17T15:06:29.860Z,96585.13
2019-05-17T15:09:11.671Z,96583.28
2019-05-17T15:11:43.562Z,96585.25
2019-05-17T15:14:36.452Z,96588.28
2019-05-17T15:17:09.189Z,96583.67
2019-05-17T15:19:41.522Z,96582.59
2019-05-17T15:22:13.929Z,96585.50
2019-05-17T15:24:51.258Z,96580.95
2019-05-17T15:27:25.247Z,96577.22
2019-05-17T15:29:59.575Z,96578.81
2019-05-17T15:32:33.818Z,96582.62
2019-05-17T15:35:11.210Z,96582.84
2019-05-17T15:37:47.108Z,96576.11
2019-05-17T15:40:20.998Z,96575.61
2019-05-17T15:42:54.964Z,96576.77
2019-05-17T15:45:28.607Z,96570.55
2019-05-17T15:48:03.403Z,96566.54
2019-05-17T15:50:37.401Z,96574.55
2019-05-17T15:53:10.355Z,96572.34
2019-05-17T15:55:45.769Z,96567.88
2019-05-17T15:58:19.083Z,96571.66
2019-05-17T16:03:48.075Z,96561.84
2019-05-17T16:06:22.549Z,96549.70
2019-05-17T16:08:55.752Z,96559.30
2019-05-17T16:11:31.620Z,96554.20
2019-05-17T16:14:04.800Z,96550.88
2019-05-17T16:17:04.452Z,96548.77
2019-05-17T16:19:54.648Z,96560.23
2019-05-17T16:22:33.430Z,96554.29
2019-05-17T16:25:26.872Z,96544.05
2019-05-17T16:28:00.657Z,96551.64
2019-05-17T16:30:34.019Z,96551.30
2019-05-17T16:33:06.882Z,96547.47
2019-05-17T16:39:09.139Z,96550.70
2019-05-17T16:41:55.401Z,96539.14
2019-05-17T16:44:51.747Z,96534.39
2019-05-17T16:47:32.547Z,96529.73
2019-05-17T16:50:18.459Z,96543.26
2019-05-17T16:53:19.749Z,96540.77
2019-05-17T16:55:58.164Z,96547.63
2019-05-17T16:58:53.224Z,96545.25
2019-05-17T17:01:27.955Z,96553.34
2019-05-17T17:04:02.846Z,96552.66
2019-05-17T17:06:37.337Z,96547.64
2019-05-17T17:09:13.534Z,96537.03
2019-05-17T17:11:47.422Z,96545.23
2019-05-17T17:14:21.454Z,96537.08
2019-05-17T17:16:53.544Z,96541.13
2019-05-17T17:19:37.806Z,96549.86
2019-05-17T17:22:20.252Z,96538.59
2019-05-17T17:24:56.493Z,96540.25
2019-05-17T17:27:49.482Z,96536.46
2019-05-17T17:30:25.750Z,96537.06
2019-05-17T17:32:58.162Z,96536.37
2019-05-17T17:35:30.606Z,96535.70
2019-05-17T17:38:01.037Z,96535.97
2019-05-17T17:40:39.027Z,96539.78
2019-05-17T17:43:15.187Z,96536.30
2019-05-17T17:45:50.541Z,96536.06
2019-05-17T17:48:45.902Z,96530.47
2019-05-17T17:51:24.306Z,96539.80
2019-05-17T17:53:56.542Z,96537.09
2019-05-17T17:59:28.200Z,96534.05
2019-05-17T18:02:03.336Z,96532.44
2019-05-17T18:04:37.863Z,96533.80
2019-05-17T18:07:16.191Z,96530.70
2019-05-17T18:10:09.726Z,96534.34
2019-05-17T18:15:50.229Z,96546.21
2019-05-17T18:18:24.934Z,96540.73
2019-05-17T18:21:00.192Z,96542.01
2019-05-17T18:23:52.891Z,96544.28
2019-05-17T18:26:26.887Z,96543.58
2019-05-17T18:28:59.970Z,96547.51
2019-05-17T18:31:53.794Z,96542.02
2019-05-17T18:34:26.532Z,96538.52
2019-05-17T18:37:01.989Z,96534.48
2019-05-17T18:39:35.317Z,96540.05
2019-05-17T18:42:09.962Z,96535.98
2019-05-17T18:44:42.897Z,96547.48
2019-05-17T18:47:38.524Z,96547.22
2019-05-17T18:50:18.097Z,96554.58
2019-05-17T18:52:51.006Z,96548.95
2019-05-17T18:55:23.243Z,96552.23
2019-05-17T18:57:56.227Z,96555.05
2019-05-17T19:00:30.530Z,96564.49
2019-05-17T19:03:03.328Z,96562.55
2019-05-17T19:05:36.052Z,96566.30
2019-05-17T19:08:09.090Z,96567.62
2019-05-17T19:10:41.682Z,96566.05
2019-05-17T19:13:14.396Z,96574.97
2019-05-17T19:15:47.365Z,96576.44
2019-05-17T19:18:40.565Z,96575.45
2019-05-17T19:21:18.166Z,96575.98
2019-05-17T19:24:11.057Z,96579.80
2019-05-17T19:26:47.335Z,96585.33
2019-05-17T19:29:20.767Z,96582.63
2019-05-17T19:31:56.070Z,96581.85
2019-05-17T19:34:30.070Z,96583.94
2019-05-17T19:37:05.308Z,96589.58
2019-05-17T19:39:39.525Z,96588.09
2019-05-17T19:42:13.090Z,96589.03
2019-05-17T19:44:58.686Z,96591.31
2019-05-17T19:47:20.930Z,96599.37
2019-05-17T19:49:56.360Z,96597.56
2019-05-17T19:52:29.041Z,96598.26
2019-05-17T19:55:02.515Z,96600.79
2019-05-17T19:57:36.831Z,96602.48
2019-05-17T20:00:15.528Z,96605.77
2019-05-17T20:02:53.192Z,96601.09
2019-05-17T20:05:25.693Z,96596.99
2019-05-17T20:07:59.093Z,96594.67
2019-05-17T20:10:31.897Z,96590.51
2019-05-17T20:13:05.634Z,96597.80
2019-05-17T20:15:39.156Z,96602.42
2019-05-17T20:18:14.029Z,96597.81
2019-05-17T20:20:48.295Z,96589.67
2019-05-17T20:23:22.522Z,96592.41
2019-05-17T20:25:56.235Z,96592.41
2019-05-17T20:28:31.652Z,96598.56
2019-05-17T20:31:04.662Z,96597.09
2019-05-17T20:33:37.260Z,96599.01
2019-05-17T20:36:11.861Z,96594.87
2019-05-17T20:41:46.075Z,96594.39
2019-05-17T20:44:18.990Z,96595.20
2019-05-17T20:46:51.595Z,96588.70
2019-05-17T20:49:25.410Z,96593.45
2019-05-17T20:51:58.660Z,96583.69
2019-05-17T20:54:33.695Z,96582.39
2019-05-17T20:57:07.515Z,96578.32
2019-05-17T20:59:39.710Z,96578.41
2019-05-17T21:02:14.502Z,96578.17
2019-05-17T21:04:49.379Z,96579.00
2019-05-17T21:07:21.561Z,96584.31
2019-05-17T21:09:53.779Z,96577.52
2019-05-17T21:12:27.705Z,96576.38
2019-05-17T21:14:59.784Z,96570.73
2019-05-17T21:17:33.488Z,96572.23
2019-05-17T21:20:07.682Z,96577.95
2019-05-17T21:22:40.358Z,96563.96
2019-05-17T21:25:14.578Z,96555.73
2019-05-17T21:27:48.265Z,96553.63
2019-05-17T21:30:20.965Z,96553.02
2019-05-17T21:32:54.673Z,96547.33
2019-05-17T21:35:30.237Z,96547.92
2019-05-17T21:38:23.974Z,96541.41
2019-05-17T21:40:59.661Z,96535.61
2019-05-17T21:43:34.457Z,96527.80
2019-05-17T21:46:10.790Z,96515.52
2019-05-17T21:48:44.783Z,96520.98
2019-05-17T21:51:17.598Z,96513.02
2019-05-17T21:53:50.257Z,96518.17
2019-05-17T21:56:23.000Z,96519.84
2019-05-17T21:58:55.866Z,96524.05
2019-05-17T22:01:31.927Z,96526.77
2019-05-17T22:04:05.057Z,96528.19
2019-05-17T22:06:40.042Z,96526.42
2019-05-17T22:09:13.658Z,96530.98
2019-05-17T22:12:11.141Z,96527.78
2019-05-17T22:14:46.776Z,96528.56
2019-05-17T22:17:19.378Z,96531.94
2019-05-17T22:19:52.095Z,96532.30
2019-05-17T22:22:25.259Z,96536.04
2019-05-17T22:24:59.414Z,96533.38
2019-05-17T22:27:32.605Z,96526.42
2019-05-17T22:30:09.725Z,96524.97
2019-05-17T22:32:42.519Z,96529.61
2019-05-17T22:35:17.914Z,96522.44
2019-05-17T22:37:49.915Z,96524.34
2019-05-17T22:40:22.614Z,96521.84
2019-05-17T22:42:55.169Z,96521.98
2019-05-17T22:45:28.275Z,96515.08
2019-05-17T22:52:19.726Z,96510.89
2019-05-17T22:54:52.776Z,96508.98
2019-05-17T22:57:25.816Z,96507.91
2019-05-17T22:59:58.589Z,96506.58
2019-05-17T23:02:31.667Z,96498.87
2019-05-17T23:05:04.647Z,96500.41
2019-05-17T23:07:37.947Z,96504.78
2019-05-17T23:10:11.180Z,96507.17
2019-05-17T23:12:43.567Z,96497.81
2019-05-17T23:15:18.512Z,96493.98
2019-05-17T23:17:51.327Z,96504.92
2019-05-17T23:20:24.366Z,96497.81
2019-05-17T23:22:56.913Z,96498.78
2019-05-17T23:25:32.755Z,96495.46
2019-05-17T23:28:07.587Z,96494.02
2019-05-17T23:30:41.559Z,96487.09
2019-05-17T23:33:15.184Z,96494.92
2019-05-17T23:35:49.055Z,96480.63
2019-05-17T23:38:29.194Z,96479.49
2019-05-17T23:41:02.077Z,96474.84
2019-05-17T23:43:35.009Z,96471.27
2019-05-17T23:46:08.309Z,96454.81
2019-05-17T23:48:42.698Z,96453.06
2019-05-17T23:51:25.066Z,96452.60
2019-05-17T23:53:58.080Z,96443.70
2019-05-17T23:56:32.767Z,96434.35
2019-05-17T23:59:10.482Z,96421.30
